Joint Base McGuire-Dix-Lakehurst, New Jersey
Current Conditions -  °F | °C
As of 8:58 PM on Monday 24 Nov 2014 (Local Time) from KWRI Reporting Station
Clear Clear  
Wind Chill: 65°   Ceiling: Unl
Heat Index: 65°   Visibility: 10mi
Dew Point: 59°   Wind: 16mph
Humidity: 83%   Direction: 220°SW
Pressure: 29.72"   Gusts: NA
Location:  40.01°N, 74.52°W
Report Text: KWRI 250158Z AUTO 22014KT 10SM CLR 18/15 A2972 RMK AO2 SLP067 T01810152
Loading
Personal Weather Stations






























Interactive Weather Map New forecast layout! Learn more

10-Day Weather Forecast

Advertisements
Track Severe Weather on mobile